sensor_id;sensor_type;location;lat;lon;timestamp;pressure;altitude;pressure_sealevel;temperature;humidity
32243;BME280;18731;42.830;24.390;2024-03-25T00:02:09;93098.88;;;8.64;78.31
32243;BME280;18731;42.830;24.390;2024-03-25T00:04:34;93114.75;;;8.61;78.63
32243;BME280;18731;42.830;24.390;2024-03-25T00:07:01;93121.41;;;8.35;79.90
32243;BME280;18731;42.830;24.390;2024-03-25T00:09:27;93113.53;;;8.23;80.50
32243;BME280;18731;42.830;24.390;2024-03-25T00:11:52;93108.41;;;8.15;81.14
32243;BME280;18731;42.830;24.390;2024-03-25T00:14:22;93113.78;;;8.18;81.60
32243;BME280;18731;42.830;24.390;2024-03-25T00:16:48;93123.75;;;8.05;80.67
32243;BME280;18731;42.830;24.390;2024-03-25T00:19:14;93127.41;;;7.69;79.81
32243;BME280;18731;42.830;24.390;2024-03-25T00:21:39;93128.75;;;7.32;81.21
32243;BME280;18731;42.830;24.390;2024-03-25T00:24:05;93124.22;;;7.04;82.20
32243;BME280;18731;42.830;24.390;2024-03-25T00:26:31;93148.94;;;6.93;83.15
32243;BME280;18731;42.830;24.390;2024-03-25T00:28:56;93148.63;;;6.82;83.79
32243;BME280;18731;42.830;24.390;2024-03-25T00:31:22;93126.38;;;6.59;84.27
32243;BME280;18731;42.830;24.390;2024-03-25T00:33:47;93131.16;;;6.81;85.12
32243;BME280;18731;42.830;24.390;2024-03-25T00:36:13;93107.69;;;6.67;85.06
32243;BME280;18731;42.830;24.390;2024-03-25T00:38:39;93112.03;;;6.60;84.40
32243;BME280;18731;42.830;24.390;2024-03-25T00:41:04;93095.50;;;6.38;84.63
32243;BME280;18731;42.830;24.390;2024-03-25T00:43:30;93111.69;;;6.61;85.68
32243;BME280;18731;42.830;24.390;2024-03-25T00:45:55;93119.59;;;6.73;84.12
32243;BME280;18731;42.830;24.390;2024-03-25T00:48:22;93136.31;;;6.62;83.93
32243;BME280;18731;42.830;24.390;2024-03-25T00:50:48;93140.44;;;6.47;83.99
32243;BME280;18731;42.830;24.390;2024-03-25T00:53:14;93152.28;;;6.25;84.36
32243;BME280;18731;42.830;24.390;2024-03-25T00:55:40;93164.66;;;6.09;86.44
32243;BME280;18731;42.830;24.390;2024-03-25T00:58:05;93169.81;;;5.93;87.60
32243;BME280;18731;42.830;24.390;2024-03-25T01:00:31;93184.19;;;5.59;87.93
32243;BME280;18731;42.830;24.390;2024-03-25T01:02:56;93186.59;;;5.40;88.59
32243;BME280;18731;42.830;24.390;2024-03-25T01:05:22;93196.91;;;5.33;88.78
32243;BME280;18731;42.830;24.390;2024-03-25T01:07:47;93207.69;;;5.28;89.14
32243;BME280;18731;42.830;24.390;2024-03-25T01:10:14;93196.53;;;5.01;89.03
32243;BME280;18731;42.830;24.390;2024-03-25T01:12:40;93197.31;;;5.23;89.11
32243;BME280;18731;42.830;24.390;2024-03-25T01:15:06;93189.06;;;5.24;87.55
32243;BME280;18731;42.830;24.390;2024-03-25T01:17:32;93167.56;;;5.26;86.87
32243;BME280;18731;42.830;24.390;2024-03-25T01:19:58;93187.22;;;5.37;84.70
32243;BME280;18731;42.830;24.390;2024-03-25T01:22:23;93187.47;;;5.44;84.84
32243;BME280;18731;42.830;24.390;2024-03-25T01:24:49;93158.88;;;5.25;85.03
32243;BME280;18731;42.830;24.390;2024-03-25T01:27:14;93177.91;;;5.52;85.25
32243;BME280;18731;42.830;24.390;2024-03-25T01:29:40;93180.22;;;5.53;84.05
32243;BME280;18731;42.830;24.390;2024-03-25T01:32:06;93170.19;;;5.59;83.16
32243;BME280;18731;42.830;24.390;2024-03-25T01:34:32;93169.13;;;5.72;82.26
32243;BME280;18731;42.830;24.390;2024-03-25T01:36:57;93142.97;;;5.70;81.13
32243;BME280;18731;42.830;24.390;2024-03-25T01:39:23;93157.97;;;5.78;79.71
32243;BME280;18731;42.830;24.390;2024-03-25T01:41:50;93145.06;;;5.65;78.35
32243;BME280;18731;42.830;24.390;2024-03-25T01:44:16;93149.16;;;5.74;77.46
32243;BME280;18731;42.830;24.390;2024-03-25T01:46:41;93154.34;;;5.83;77.16
32243;BME280;18731;42.830;24.390;2024-03-25T01:49:08;93130.72;;;5.78;76.68
32243;BME280;18731;42.830;24.390;2024-03-25T01:51:34;93150.25;;;5.86;76.27
32243;BME280;18731;42.830;24.390;2024-03-25T01:54:01;93146.28;;;5.79;75.15
32243;BME280;18731;42.830;24.390;2024-03-25T01:56:31;93114.97;;;5.69;73.79
32243;BME280;18731;42.830;24.390;2024-03-25T01:58:58;93120.69;;;5.59;73.11
32243;BME280;18731;42.830;24.390;2024-03-25T02:01:23;93144.53;;;5.71;72.88
32243;BME280;18731;42.830;24.390;2024-03-25T02:03:49;93134.34;;;5.49;72.82
32243;BME280;18731;42.830;24.390;2024-03-25T02:06:17;93156.16;;;5.46;73.40
32243;BME280;18731;42.830;24.390;2024-03-25T02:08:43;93155.41;;;5.58;73.43
32243;BME280;18731;42.830;24.390;2024-03-25T02:11:10;93161.00;;;5.44;73.88
32243;BME280;18731;42.830;24.390;2024-03-25T02:13:39;93128.91;;;5.33;73.92
32243;BME280;18731;42.830;24.390;2024-03-25T02:16:05;93156.00;;;5.30;73.21
32243;BME280;18731;42.830;24.390;2024-03-25T02:18:31;93146.63;;;5.21;73.70
32243;BME280;18731;42.830;24.390;2024-03-25T02:20:58;93121.75;;;5.01;73.89
32243;BME280;18731;42.830;24.390;2024-03-25T02:23:23;93136.50;;;5.02;74.26
32243;BME280;18731;42.830;24.390;2024-03-25T02:25:50;93137.84;;;5.08;74.21
32243;BME280;18731;42.830;24.390;2024-03-25T02:28:16;93119.09;;;5.01;74.61
32243;BME280;18731;42.830;24.390;2024-03-25T02:30:41;93140.38;;;5.04;74.20
32243;BME280;18731;42.830;24.390;2024-03-25T02:33:07;93146.72;;;4.91;74.41
32243;BME280;18731;42.830;24.390;2024-03-25T02:35:33;93145.56;;;4.80;74.69
32243;BME280;18731;42.830;24.390;2024-03-25T02:38:00;93112.56;;;4.65;75.60
32243;BME280;18731;42.830;24.390;2024-03-25T02:40:26;93133.63;;;4.74;75.78
32243;BME280;18731;42.830;24.390;2024-03-25T02:42:52;93145.63;;;4.71;76.39
32243;BME280;18731;42.830;24.390;2024-03-25T02:45:17;93129.97;;;4.45;76.90
32243;BME280;18731;42.830;24.390;2024-03-25T02:47:43;93118.19;;;4.64;77.04
32243;BME280;18731;42.830;24.390;2024-03-25T02:50:09;93142.72;;;4.85;76.76
32243;BME280;18731;42.830;24.390;2024-03-25T02:52:34;93160.06;;;4.95;76.94
32243;BME280;18731;42.830;24.390;2024-03-25T02:55:00;93156.72;;;4.85;76.70
32243;BME280;18731;42.830;24.390;2024-03-25T02:57:26;93155.03;;;4.81;76.62
32243;BME280;18731;42.830;24.390;2024-03-25T02:59:51;93156.19;;;4.92;76.93
32243;BME280;18731;42.830;24.390;2024-03-25T03:02:17;93148.47;;;4.87;76.63
32243;BME280;18731;42.830;24.390;2024-03-25T03:04:43;93156.84;;;4.89;76.56
32243;BME280;18731;42.830;24.390;2024-03-25T03:07:08;93155.69;;;4.78;76.38
32243;BME280;18731;42.830;24.390;2024-03-25T03:09:34;93157.44;;;4.74;77.01
32243;BME280;18731;42.830;24.390;2024-03-25T03:11:59;93139.72;;;4.53;77.01
32243;BME280;18731;42.830;24.390;2024-03-25T03:14:25;93171.28;;;4.71;77.23
32243;BME280;18731;42.830;24.390;2024-03-25T03:16:51;93180.25;;;4.78;77.02
32243;BME280;18731;42.830;24.390;2024-03-25T03:19:20;93180.56;;;4.77;77.31
32243;BME280;18731;42.830;24.390;2024-03-25T03:21:46;93159.56;;;4.60;77.72
32243;BME280;18731;42.830;24.390;2024-03-25T03:24:11;93183.16;;;4.65;77.72
32243;BME280;18731;42.830;24.390;2024-03-25T03:26:37;93189.34;;;4.69;77.67
32243;BME280;18731;42.830;24.390;2024-03-25T03:29:02;93192.03;;;4.60;77.98
32243;BME280;18731;42.830;24.390;2024-03-25T03:31:28;93186.09;;;4.42;78.13
32243;BME280;18731;42.830;24.390;2024-03-25T03:33:54;93193.00;;;4.56;77.95
32243;BME280;18731;42.830;24.390;2024-03-25T03:36:22;93206.22;;;4.56;77.56
32243;BME280;18731;42.830;24.390;2024-03-25T03:38:50;93207.91;;;4.60;77.50
32243;BME280;18731;42.830;24.390;2024-03-25T03:41:16;93175.22;;;4.44;77.74
32243;BME280;18731;42.830;24.390;2024-03-25T03:43:41;93217.50;;;4.65;77.77
32243;BME280;18731;42.830;24.390;2024-03-25T03:46:06;93223.63;;;4.57;78.09
32243;BME280;18731;42.830;24.390;2024-03-25T03:48:32;93232.00;;;4.59;78.66
32243;BME280;18731;42.830;24.390;2024-03-25T03:50:58;93231.63;;;4.69;78.27
32243;BME280;18731;42.830;24.390;2024-03-25T03:53:23;93235.34;;;4.68;78.12
32243;BME280;18731;42.830;24.390;2024-03-25T03:55:56;93230.34;;;4.75;77.86
32243;BME280;18731;42.830;24.390;2024-03-25T03:58:23;93237.56;;;4.66;77.95
32243;BME280;18731;42.830;24.390;2024-03-25T04:00:49;93223.16;;;4.55;78.00
32243;BME280;18731;42.830;24.390;2024-03-25T04:03:15;93238.00;;;4.68;78.19
32243;BME280;18731;42.830;24.390;2024-03-25T04:05:40;93228.13;;;4.56;78.37
32243;BME280;18731;42.830;24.390;2024-03-25T04:08:06;93243.28;;;4.68;78.50
32243;BME280;18731;42.830;24.390;2024-03-25T04:10:31;93224.63;;;4.43;78.80
32243;BME280;18731;42.830;24.390;2024-03-25T04:12:57;93236.38;;;4.55;79.08
32243;BME280;18731;42.830;24.390;2024-03-25T04:15:23;93242.69;;;4.62;79.14
32243;BME280;18731;42.830;24.390;2024-03-25T04:17:49;93243.38;;;4.50;79.19
32243;BME280;18731;42.830;24.390;2024-03-25T04:20:15;93248.50;;;4.56;79.38
32243;BME280;18731;42.830;24.390;2024-03-25T04:22:45;93245.66;;;4.61;79.40
32243;BME280;18731;42.830;24.390;2024-03-25T04:25:11;93252.00;;;4.68;79.82
32243;BME280;18731;42.830;24.390;2024-03-25T04:27:43;93256.06;;;4.87;79.01
32243;BME280;18731;42.830;24.390;2024-03-25T04:30:10;93258.66;;;4.95;78.78
32243;BME280;18731;42.830;24.390;2024-03-25T04:32:38;93259.16;;;4.89;79.07
32243;BME280;18731;42.830;24.390;2024-03-25T04:35:05;93259.94;;;4.89;79.18
32243;BME280;18731;42.830;24.390;2024-03-25T04:37:32;93259.47;;;4.87;79.32
32243;BME280;18731;42.830;24.390;2024-03-25T04:39:58;93262.44;;;4.85;79.25
32243;BME280;18731;42.830;24.390;2024-03-25T04:42:24;93265.06;;;4.65;80.09
32243;BME280;18731;42.830;24.390;2024-03-25T04:44:50;93268.69;;;4.81;79.82
32243;BME280;18731;42.830;24.390;2024-03-25T04:47:16;93269.16;;;4.83;80.04
32243;BME280;18731;42.830;24.390;2024-03-25T04:49:42;93270.88;;;4.79;80.01
32243;BME280;18731;42.830;24.390;2024-03-25T04:52:08;93253.53;;;4.69;80.05
32243;BME280;18731;42.830;24.390;2024-03-25T04:54:34;93281.66;;;4.95;80.17
32243;BME280;18731;42.830;24.390;2024-03-25T04:57:00;93287.72;;;4.95;79.79
32243;BME280;18731;42.830;24.390;2024-03-25T04:59:25;93278.44;;;4.89;79.90
32243;BME280;18731;42.830;24.390;2024-03-25T05:01:51;93287.09;;;4.98;80.14
32243;BME280;18731;42.830;24.390;2024-03-25T05:04:18;93294.69;;;5.00;80.34
32243;BME280;18731;42.830;24.390;2024-03-25T05:06:45;93290.19;;;5.00;79.93
32243;BME280;18731;42.830;24.390;2024-03-25T05:09:11;93286.81;;;4.91;80.13
32243;BME280;18731;42.830;24.390;2024-03-25T05:11:36;93284.38;;;4.86;80.28
32243;BME280;18731;42.830;24.390;2024-03-25T05:14:02;93290.41;;;4.66;81.25
32243;BME280;18731;42.830;24.390;2024-03-25T05:16:27;93271.94;;;4.57;80.75
32243;BME280;18731;42.830;24.390;2024-03-25T05:18:53;93293.50;;;4.68;81.37
32243;BME280;18731;42.830;24.390;2024-03-25T05:21:18;93300.41;;;4.51;82.26
32243;BME280;18731;42.830;24.390;2024-03-25T05:23:44;93309.84;;;4.61;82.47
32243;BME280;18731;42.830;24.390;2024-03-25T05:26:09;93318.56;;;4.62;83.83
32243;BME280;18731;42.830;24.390;2024-03-25T05:28:35;93301.09;;;4.69;83.53
32243;BME280;18731;42.830;24.390;2024-03-25T05:31:10;93321.38;;;4.86;83.26
32243;BME280;18731;42.830;24.390;2024-03-25T05:33:36;93300.69;;;4.59;83.69
32243;BME280;18731;42.830;24.390;2024-03-25T05:36:01;93328.03;;;4.63;84.20
32243;BME280;18731;42.830;24.390;2024-03-25T05:38:28;93318.06;;;4.68;84.28
32243;BME280;18731;42.830;24.390;2024-03-25T05:40:54;93322.75;;;4.63;84.90
32243;BME280;18731;42.830;24.390;2024-03-25T05:43:20;93323.84;;;4.62;85.33
32243;BME280;18731;42.830;24.390;2024-03-25T05:45:53;93322.78;;;4.54;84.51
32243;BME280;18731;42.830;24.390;2024-03-25T05:48:19;93323.56;;;4.55;85.37
32243;BME280;18731;42.830;24.390;2024-03-25T05:50:45;93326.28;;;4.37;86.08
32243;BME280;18731;42.830;24.390;2024-03-25T05:53:11;93301.75;;;4.28;86.27
32243;BME280;18731;42.830;24.390;2024-03-25T05:55:37;93319.09;;;4.46;86.04
32243;BME280;18731;42.830;24.390;2024-03-25T05:58:02;93295.69;;;4.36;84.78
32243;BME280;18731;42.830;24.390;2024-03-25T06:00:33;93331.84;;;4.44;86.00
32243;BME280;18731;42.830;24.390;2024-03-25T06:02:58;93336.28;;;4.23;86.00
32243;BME280;18731;42.830;24.390;2024-03-25T06:05:24;93341.13;;;4.12;84.99
32243;BME280;18731;42.830;24.390;2024-03-25T06:07:49;93342.03;;;4.16;86.13
32243;BME280;18731;42.830;24.390;2024-03-25T06:10:15;93329.03;;;4.03;84.04
32243;BME280;18731;42.830;24.390;2024-03-25T06:12:40;93359.25;;;4.31;85.36
32243;BME280;18731;42.830;24.390;2024-03-25T06:15:07;93347.75;;;4.27;83.38
32243;BME280;18731;42.830;24.390;2024-03-25T06:17:33;93364.38;;;4.28;82.10
32243;BME280;18731;42.830;24.390;2024-03-25T06:19:58;93371.22;;;4.29;82.82
32243;BME280;18731;42.830;24.390;2024-03-25T06:22:24;93364.22;;;4.24;81.59
32243;BME280;18731;42.830;24.390;2024-03-25T06:24:49;93370.25;;;4.42;81.61
32243;BME280;18731;42.830;24.390;2024-03-25T06:27:15;93360.44;;;4.42;80.68
32243;BME280;18731;42.830;24.390;2024-03-25T06:29:41;93364.06;;;4.29;78.84
32243;BME280;18731;42.830;24.390;2024-03-25T06:32:08;93383.94;;;4.35;77.97
32243;BME280;18731;42.830;24.390;2024-03-25T06:34:52;93368.91;;;4.18;78.19
32243;BME280;18731;42.830;24.390;2024-03-25T06:37:18;93362.25;;;4.12;78.42
32243;BME280;18731;42.830;24.390;2024-03-25T06:39:43;93394.22;;;4.28;80.91
32243;BME280;18731;42.830;24.390;2024-03-25T06:42:09;93398.69;;;4.36;79.46
32243;BME280;18731;42.830;24.390;2024-03-25T06:44:34;93411.09;;;4.44;79.52
32243;BME280;18731;42.830;24.390;2024-03-25T06:47:00;93410.19;;;4.40;77.70
32243;BME280;18731;42.830;24.390;2024-03-25T06:49:25;93404.59;;;4.33;76.99
32243;BME280;18731;42.830;24.390;2024-03-25T06:51:51;93414.22;;;4.46;77.88
32243;BME280;18731;42.830;24.390;2024-03-25T06:54:16;93421.66;;;4.44;77.73
32243;BME280;18731;42.830;24.390;2024-03-25T06:56:43;93422.94;;;4.38;76.60
32243;BME280;18731;42.830;24.390;2024-03-25T06:59:08;93422.94;;;4.38;77.20
32243;BME280;18731;42.830;24.390;2024-03-25T07:01:33;93423.38;;;4.49;77.47
32243;BME280;18731;42.830;24.390;2024-03-25T07:03:59;93407.09;;;4.30;77.37
32243;BME280;18731;42.830;24.390;2024-03-25T07:06:26;93419.19;;;4.39;75.88
32243;BME280;18731;42.830;24.390;2024-03-25T07:08:51;93425.84;;;4.54;75.74
32243;BME280;18731;42.830;24.390;2024-03-25T07:11:17;93407.72;;;4.35;73.50
32243;BME280;18731;42.830;24.390;2024-03-25T07:13:43;93425.41;;;4.43;73.72
32243;BME280;18731;42.830;24.390;2024-03-25T07:16:08;93436.44;;;4.45;74.81
32243;BME280;18731;42.830;24.390;2024-03-25T07:18:34;93444.63;;;4.61;76.04
32243;BME280;18731;42.830;24.390;2024-03-25T07:20:59;93448.97;;;4.66;75.22
32243;BME280;18731;42.830;24.390;2024-03-25T07:23:25;93450.38;;;4.63;76.20
32243;BME280;18731;42.830;24.390;2024-03-25T07:25:50;93448.34;;;4.69;77.29
32243;BME280;18731;42.830;24.390;2024-03-25T07:28:16;93436.34;;;4.71;76.91
32243;BME280;18731;42.830;24.390;2024-03-25T07:30:41;93459.13;;;4.93;77.73
32243;BME280;18731;42.830;24.390;2024-03-25T07:33:07;93461.88;;;5.05;74.31
32243;BME280;18731;42.830;24.390;2024-03-25T07:35:32;93466.03;;;5.24;74.11
32243;BME280;18731;42.830;24.390;2024-03-25T07:37:59;93470.00;;;5.38;73.43
32243;BME280;18731;42.830;24.390;2024-03-25T07:40:24;93459.75;;;5.37;73.34
32243;BME280;18731;42.830;24.390;2024-03-25T07:42:50;93456.19;;;5.33;72.11
32243;BME280;18731;42.830;24.390;2024-03-25T07:45:16;93461.09;;;5.43;73.39
32243;BME280;18731;42.830;24.390;2024-03-25T07:47:41;93461.09;;;5.43;70.33
32243;BME280;18731;42.830;24.390;2024-03-25T07:50:07;93468.47;;;5.37;71.60
32243;BME280;18731;42.830;24.390;2024-03-25T07:52:33;93465.53;;;5.30;71.50
32243;BME280;18731;42.830;24.390;2024-03-25T07:55:01;93446.28;;;5.21;71.18
32243;BME280;18731;42.830;24.390;2024-03-25T07:57:27;93465.63;;;5.42;72.77
32243;BME280;18731;42.830;24.390;2024-03-25T07:59:52;93473.50;;;5.51;72.39
32243;BME280;18731;42.830;24.390;2024-03-25T08:02:18;93473.59;;;5.63;70.28
32243;BME280;18731;42.830;24.390;2024-03-25T08:04:43;93470.69;;;5.56;69.45
32243;BME280;18731;42.830;24.390;2024-03-25T08:07:09;93481.41;;;5.60;70.81
32243;BME280;18731;42.830;24.390;2024-03-25T08:09:35;93484.66;;;5.65;70.13
32243;BME280;18731;42.830;24.390;2024-03-25T08:12:00;93467.47;;;5.71;69.01
32243;BME280;18731;42.830;24.390;2024-03-25T08:14:26;93482.63;;;5.92;70.22
32243;BME280;18731;42.830;24.390;2024-03-25T08:16:51;93474.56;;;6.09;73.75
32243;BME280;18731;42.830;24.390;2024-03-25T08:19:17;93479.06;;;6.29;69.31
32243;BME280;18731;42.830;24.390;2024-03-25T08:21:43;93481.88;;;6.45;69.49
32243;BME280;18731;42.830;24.390;2024-03-25T08:24:08;93480.25;;;6.53;68.72
32243;BME280;18731;42.830;24.390;2024-03-25T08:26:34;93482.75;;;6.70;68.28
32243;BME280;18731;42.830;24.390;2024-03-25T08:28:59;93482.97;;;6.77;67.44
32243;BME280;18731;42.830;24.390;2024-03-25T08:31:25;93483.13;;;6.93;66.11
32243;BME280;18731;42.830;24.390;2024-03-25T08:33:50;93481.38;;;7.09;66.35
32243;BME280;18731;42.830;24.390;2024-03-25T08:36:16;93476.19;;;7.25;65.85
32243;BME280;18731;42.830;24.390;2024-03-25T08:38:43;93474.22;;;7.46;64.66
32243;BME280;18731;42.830;24.390;2024-03-25T08:41:09;93469.56;;;7.67;65.48
32243;BME280;18731;42.830;24.390;2024-03-25T08:43:35;93462.25;;;7.89;64.43
32243;BME280;18731;42.830;24.390;2024-03-25T08:46:00;93432.13;;;7.97;64.86
32243;BME280;18731;42.830;24.390;2024-03-25T08:48:26;93455.03;;;8.42;62.08
32243;BME280;18731;42.830;24.390;2024-03-25T08:50:52;93448.28;;;8.60;60.56
32243;BME280;18731;42.830;24.390;2024-03-25T08:53:17;93457.56;;;8.66;62.29
32243;BME280;18731;42.830;24.390;2024-03-25T08:55:46;93459.47;;;8.65;61.07
32243;BME280;18731;42.830;24.390;2024-03-25T08:58:13;93452.72;;;8.84;60.20
32243;BME280;18731;42.830;24.390;2024-03-25T09:00:38;93447.09;;;8.57;56.78
32243;BME280;18731;42.830;24.390;2024-03-25T09:03:04;93454.00;;;8.46;59.12
32243;BME280;18731;42.830;24.390;2024-03-25T09:05:30;93449.41;;;8.59;59.41
32243;BME280;18731;42.830;24.390;2024-03-25T09:07:55;93436.84;;;8.44;58.04
32243;BME280;18731;42.830;24.390;2024-03-25T09:10:24;93447.63;;;8.63;57.40
32243;BME280;18731;42.830;24.390;2024-03-25T09:13:08;93447.41;;;8.99;56.79
32243;BME280;18731;42.830;24.390;2024-03-25T09:15:33;93450.06;;;9.47;59.28
32243;BME280;18731;42.830;24.390;2024-03-25T09:17:59;93454.44;;;9.39;54.18
32243;BME280;18731;42.830;24.390;2024-03-25T09:20:25;93454.03;;;9.21;54.81
32243;BME280;18731;42.830;24.390;2024-03-25T09:22:51;93431.59;;;8.75;52.15
32243;BME280;18731;42.830;24.390;2024-03-25T09:25:18;93465.41;;;8.47;54.92
32243;BME280;18731;42.830;24.390;2024-03-25T09:27:47;93471.56;;;8.23;56.26
32243;BME280;18731;42.830;24.390;2024-03-25T09:30:13;93428.69;;;8.24;56.70
32243;BME280;18731;42.830;24.390;2024-03-25T09:32:42;93442.66;;;8.21;54.67
32243;BME280;18731;42.830;24.390;2024-03-25T09:35:08;93464.13;;;8.28;57.73
32243;BME280;18731;42.830;24.390;2024-03-25T09:37:34;93448.03;;;8.09;55.54
32243;BME280;18731;42.830;24.390;2024-03-25T09:40:00;93470.84;;;8.10;55.62
32243;BME280;18731;42.830;24.390;2024-03-25T09:42:27;93466.91;;;8.60;55.67
32243;BME280;18731;42.830;24.390;2024-03-25T09:44:55;93446.78;;;8.75;54.65
32243;BME280;18731;42.830;24.390;2024-03-25T09:47:22;93451.69;;;8.88;53.95
32243;BME280;18731;42.830;24.390;2024-03-25T09:49:47;93456.25;;;8.88;52.41
32243;BME280;18731;42.830;24.390;2024-03-25T09:52:14;93432.31;;;8.44;53.80
32243;BME280;18731;42.830;24.390;2024-03-25T09:54:40;93454.44;;;8.48;54.56
32243;BME280;18731;42.830;24.390;2024-03-25T09:57:06;93460.16;;;8.34;54.19
32243;BME280;18731;42.830;24.390;2024-03-25T09:59:33;93439.41;;;8.00;53.60
32243;BME280;18731;42.830;24.390;2024-03-25T10:01:59;93461.69;;;8.35;55.31
32243;BME280;18731;42.830;24.390;2024-03-25T10:04:25;93453.91;;;8.43;54.87
32243;BME280;18731;42.830;24.390;2024-03-25T10:06:50;93472.47;;;8.55;53.58
32243;BME280;18731;42.830;24.390;2024-03-25T10:09:22;93455.69;;;8.38;51.68
32243;BME280;18731;42.830;24.390;2024-03-25T10:11:51;93464.38;;;8.79;53.32
32243;BME280;18731;42.830;24.390;2024-03-25T10:14:16;93477.91;;;9.18;50.60
32243;BME280;18731;42.830;24.390;2024-03-25T10:16:43;93464.06;;;9.28;50.27
32243;BME280;18731;42.830;24.390;2024-03-25T10:19:09;93473.88;;;9.24;50.44
32243;BME280;18731;42.830;24.390;2024-03-25T10:21:35;93469.56;;;9.03;52.75
32243;BME280;18731;42.830;24.390;2024-03-25T10:24:00;93473.84;;;8.92;53.31
32243;BME280;18731;42.830;24.390;2024-03-25T10:26:30;93480.28;;;9.07;52.56
32243;BME280;18731;42.830;24.390;2024-03-25T10:29:06;93478.25;;;9.32;52.50
32243;BME280;18731;42.830;24.390;2024-03-25T10:31:33;93479.72;;;9.45;51.08
32243;BME280;18731;42.830;24.390;2024-03-25T10:33:59;93480.56;;;9.49;51.67
32243;BME280;18731;42.830;24.390;2024-03-25T10:36:25;93471.09;;;9.67;48.09
32243;BME280;18731;42.830;24.390;2024-03-25T10:38:55;93480.16;;;10.17;49.10
32243;BME280;18731;42.830;24.390;2024-03-25T10:41:22;93470.63;;;10.16;49.28
32243;BME280;18731;42.830;24.390;2024-03-25T10:43:48;93482.94;;;10.21;48.61
32243;BME280;18731;42.830;24.390;2024-03-25T10:46:21;93486.06;;;9.56;50.73
32243;BME280;18731;42.830;24.390;2024-03-25T10:49:14;93460.72;;;9.47;45.44
32243;BME280;18731;42.830;24.390;2024-03-25T10:51:43;93462.34;;;9.51;46.87
32243;BME280;18731;42.830;24.390;2024-03-25T10:54:10;93475.25;;;9.18;44.57
32243;BME280;18731;42.830;24.390;2024-03-25T10:56:37;93475.56;;;9.00;45.10
32243;BME280;18731;42.830;24.390;2024-03-25T10:59:02;93477.06;;;8.70;44.67
32243;BME280;18731;42.830;24.390;2024-03-25T11:01:29;93447.06;;;8.29;46.20
32243;BME280;18731;42.830;24.390;2024-03-25T11:03:56;93474.56;;;8.33;44.07
32243;BME280;18731;42.830;24.390;2024-03-25T11:06:22;93482.78;;;8.56;43.49
32243;BME280;18731;42.830;24.390;2024-03-25T11:08:56;93468.78;;;9.03;43.05
32243;BME280;18731;42.830;24.390;2024-03-25T11:11:23;93474.88;;;9.03;44.87
32243;BME280;18731;42.830;24.390;2024-03-25T11:13:48;93481.84;;;9.08;44.09
32243;BME280;18731;42.830;24.390;2024-03-25T11:16:14;93489.34;;;8.75;44.01
32243;BME280;18731;42.830;24.390;2024-03-25T11:18:51;93456.38;;;8.35;44.58
32243;BME280;18731;42.830;24.390;2024-03-25T11:21:24;93486.25;;;8.73;46.42
32243;BME280;18731;42.830;24.390;2024-03-25T11:23:50;93497.22;;;8.71;45.23
32243;BME280;18731;42.830;24.390;2024-03-25T11:26:26;93492.22;;;8.97;45.34
32243;BME280;18731;42.830;24.390;2024-03-25T11:28:52;93493.69;;;8.95;45.80
32243;BME280;18731;42.830;24.390;2024-03-25T11:31:25;93483.22;;;9.02;44.83
32243;BME280;18731;42.830;24.390;2024-03-25T11:33:51;93484.84;;;9.07;44.31
32243;BME280;18731;42.830;24.390;2024-03-25T11:36:17;93491.16;;;8.86;45.69
32243;BME280;18731;42.830;24.390;2024-03-25T11:39:10;93496.06;;;8.84;44.62
32243;BME280;18731;42.830;24.390;2024-03-25T11:41:41;93507.91;;;8.59;45.76
32243;BME280;18731;42.830;24.390;2024-03-25T11:44:10;93503.09;;;8.49;45.44
32243;BME280;18731;42.830;24.390;2024-03-25T11:46:38;93475.78;;;8.24;45.87
32243;BME280;18731;42.830;24.390;2024-03-25T11:49:11;93483.56;;;8.57;47.65
32243;BME280;18731;42.830;24.390;2024-03-25T11:51:37;93495.38;;;8.87;46.83
32243;BME280;18731;42.830;24.390;2024-03-25T11:54:06;93497.41;;;8.78;45.19
32243;BME280;18731;42.830;24.390;2024-03-25T11:56:32;93489.75;;;8.61;44.83
32243;BME280;18731;42.830;24.390;2024-03-25T11:58:59;93513.38;;;8.78;45.66
32243;BME280;18731;42.830;24.390;2024-03-25T12:01:25;93518.75;;;8.66;45.96
32243;BME280;18731;42.830;24.390;2024-03-25T12:03:51;93515.38;;;8.81;45.55
32243;BME280;18731;42.830;24.390;2024-03-25T12:06:16;93504.44;;;9.30;44.90
32243;BME280;18731;42.830;24.390;2024-03-25T12:08:42;93515.09;;;9.30;44.90
32243;BME280;18731;42.830;24.390;2024-03-25T12:11:31;93503.59;;;9.26;43.79
32243;BME280;18731;42.830;24.390;2024-03-25T12:13:57;93496.13;;;9.31;44.59
32243;BME280;18731;42.830;24.390;2024-03-25T12:16:23;93508.91;;;9.10;45.37
32243;BME280;18731;42.830;24.390;2024-03-25T12:18:49;93506.81;;;9.03;45.39
32243;BME280;18731;42.830;24.390;2024-03-25T12:21:15;93491.22;;;8.74;44.62
32243;BME280;18731;42.830;24.390;2024-03-25T12:23:42;93519.84;;;8.37;46.47
32243;BME280;18731;42.830;24.390;2024-03-25T12:26:08;93514.13;;;8.11;46.74
32243;BME280;18731;42.830;24.390;2024-03-25T12:28:34;93530.19;;;8.14;47.40
32243;BME280;18731;42.830;24.390;2024-03-25T12:31:02;93514.03;;;7.95;47.15
32243;BME280;18731;42.830;24.390;2024-03-25T12:33:27;93516.03;;;8.50;46.34
32243;BME280;18731;42.830;24.390;2024-03-25T12:35:53;93528.44;;;8.86;45.74
32243;BME280;18731;42.830;24.390;2024-03-25T12:38:27;93522.31;;;8.86;43.86
32243;BME280;18731;42.830;24.390;2024-03-25T12:41:03;93506.13;;;8.63;45.07
32243;BME280;18731;42.830;24.390;2024-03-25T12:43:31;93525.66;;;8.55;43.52
32243;BME280;18731;42.830;24.390;2024-03-25T12:45:58;93521.47;;;8.54;44.17
32243;BME280;18731;42.830;24.390;2024-03-25T12:48:24;93521.16;;;8.71;44.89
32243;BME280;18731;42.830;24.390;2024-03-25T12:50:50;93526.50;;;8.71;43.17
32243;BME280;18731;42.830;24.390;2024-03-25T12:53:17;93527.84;;;8.65;44.21
32243;BME280;18731;42.830;24.390;2024-03-25T12:55:43;93526.50;;;8.71;43.71
32243;BME280;18731;42.830;24.390;2024-03-25T12:58:09;93536.16;;;8.63;44.41